Time;durP1;ratioP1;P1;durP2;ratioP2;P2;SDS_P1;SDS_P2;PMS_P1;PMS_P2;Temp;Humidity;BMP_temperature;BMP_pressure;BME280_temperature;BME280_humidity;BME280_pressure;Samples;Min_cycle;Max_cycle;Signal;HPM_P1;HPM_P2
2021/04/30 04:58:18;;;;;;;;;;;;;;;10.43;100.00;97135.85;1750956;77;20780;-70
2021/04/30 05:00:46;;;;;;;;;;;;;;;10.59;100.00;97126.14;1784765;78;20589;-70
2021/04/30 05:03:14;;;;;;;;;;;;;;;10.69;100.00;97122.23;1777462;78;20387;-71
2021/04/30 05:05:42;;;;;;;;;;;;;;;10.82;100.00;97124.36;1775162;78;20542;-70
2021/04/30 05:08:10;;;;;;;;;;;;;;;10.95;100.00;97115.95;1782802;78;20594;-70
2021/04/30 05:10:38;;;;;;;;;;;;;;;11.08;100.00;97118.61;1784310;78;21922;-69
2021/04/30 05:13:07;;;;;;;;;;;;;;;11.20;100.00;97115.18;1803917;78;20550;-68
2021/04/30 05:15:36;;;;;;;;;;;;;;;11.37;100.00;97120.17;1780369;78;20396;-70
2021/04/30 05:18:04;;;;;;;;;;;;;;;11.73;100.00;97115.12;1788067;78;20543;-71
2021/04/30 05:20:33;;;;;;;;;;;;;;;12.17;100.00;97107.10;1783736;78;20581;-74
2021/04/30 05:23:01;;;;;;;;;;;;;;;12.54;100.00;97099.52;1803473;78;21746;-71
2021/04/30 05:25:29;;;;;;;;;;;;;;;12.89;100.00;97096.64;1778315;78;20959;-69
2021/04/30 05:27:57;;;;;;;;;;;;;;;13.22;100.00;97103.55;1775637;78;20563;-68
2021/04/30 05:30:25;;;;;;;;;;;;;;;13.48;96.82;97093.54;1792176;78;20688;-67
2021/04/30 05:32:53;;;;;;;;;;;;;;;13.69;95.24;97100.19;1787833;79;20579;-66
2021/04/30 05:35:21;;;;;;;;;;;;;;;13.84;92.60;97097.39;1790539;79;22074;-67
2021/04/30 05:37:49;;;;;;;;;;;;;;;14.01;90.50;97092.98;1778683;78;20538;-70
2021/04/30 05:40:17;;;;;;;;;;;;;;;14.16;87.88;97095.45;1779457;78;20243;-66
2021/04/30 05:42:45;;;;;;;;;;;;;;;14.28;86.64;97095.81;1789885;78;20583;-68
2021/04/30 05:45:14;;;;;;;;;;;;;;;14.39;85.95;97097.30;1806589;78;20800;-65
2021/04/30 05:47:43;;;;;;;;;;;;;;;14.49;84.22;97098.22;1808439;78;21800;-66
2021/04/30 05:50:11;;;;;;;;;;;;;;;14.55;83.97;97103.14;1807603;78;20581;-66
2021/04/30 05:52:39;;;;;;;;;;;;;;;14.61;81.77;97108.64;1786288;78;20588;-68
2021/04/30 05:55:08;;;;;;;;;;;;;;;14.68;80.55;97110.92;1781791;78;20499;-67
2021/04/30 05:57:36;;;;;;;;;;;;;;;14.70;80.93;97100.30;1782285;78;20627;-69
2021/04/30 06:00:09;;;;;;;;;;;;;;;14.73;80.05;97103.70;1770567;79;22055;-67
2021/04/30 06:02:43;;;;;;;;;;;;;;;14.76;79.69;97101.81;1766651;79;20549;-68
2021/04/30 06:05:11;;;;;;;;;;;;;;;14.82;78.68;97103.84;1786522;77;20222;-68
2021/04/30 06:07:39;;;;;;;;;;;;;;;14.88;78.18;97110.63;1793807;77;20614;-68
2021/04/30 06:10:09;;;;;;;;;;;;;;;14.94;77.78;97108.15;1794021;79;20393;-67
2021/04/30 06:12:38;;;;;;;;;;;;;;;15.00;76.38;97112.28;1802806;77;21914;-69
2021/04/30 06:15:06;;;;;;;;;;;;;;;15.04;75.54;97115.94;1792637;79;20262;-67
2021/04/30 06:17:34;;;;;;;;;;;;;;;15.06;75.59;97110.34;1815604;78;20526;-67
2021/04/30 06:20:02;;;;;;;;;;;;;;;15.07;75.39;97107.95;1812975;77;20484;-68
2021/04/30 06:22:30;;;;;;;;;;;;;;;15.05;75.37;97104.28;1815575;77;20515;-69
2021/04/30 06:24:58;;;;;;;;;;;;;;;15.03;75.12;97109.61;1827134;77;21972;-70
2021/04/30 06:27:27;;;;;;;;;;;;;;;15.01;74.27;97103.81;1810280;77;20479;-72
2021/04/30 06:29:55;;;;;;;;;;;;;;;15.00;74.49;97104.87;1821914;77;20479;-72
2021/04/30 06:32:22;;;;;;;;;;;;;;;14.98;74.16;97105.19;1800866;77;20610;-68
2021/04/30 06:34:50;;;;;;;;;;;;;;;14.98;74.08;97113.66;1812281;77;20478;-69
2021/04/30 06:37:18;;;;;;;;;;;;;;;14.97;73.75;97116.06;1813803;77;21641;-70
2021/04/30 06:39:47;;;;;;;;;;;;;;;14.95;73.62;97118.98;1791998;77;20390;-70
2021/04/30 06:42:15;;;;;;;;;;;;;;;14.95;73.30;97119.52;1818038;76;20517;-72
2021/04/30 06:44:43;;;;;;;;;;;;;;;14.93;72.20;97126.42;1835909;76;20548;-67
2021/04/30 06:47:11;;;;;;;;;;;;;;;14.95;71.84;97119.52;1840927;77;20724;-70
2021/04/30 06:49:41;;;;;;;;;;;;;;;14.94;72.20;97120.05;1801227;77;21934;-70
2021/04/30 06:52:08;;;;;;;;;;;;;;;14.93;72.17;97129.06;1797858;77;20620;-71
2021/04/30 06:54:37;;;;;;;;;;;;;;;14.93;72.37;97133.03;1774328;79;20525;-66
2021/04/30 06:57:05;;;;;;;;;;;;;;;14.92;72.19;97135.95;1830858;76;20574;-69
2021/04/30 06:59:32;;;;;;;;;;;;;;;14.92;72.28;97130.66;1768932;78;20761;-69
2021/04/30 07:02:02;;;;;;;;;;;;;;;14.91;72.12;97125.94;1739832;80;21877;-74
2021/04/30 07:04:31;;;;;;;;;;;;;;;14.93;71.83;97133.56;1765673;78;20411;-70
2021/04/30 07:06:58;;;;;;;;;;;;;;;14.91;72.46;97135.20;1760654;79;20276;-72
2021/04/30 07:09:27;;;;;;;;;;;;;;;14.89;72.58;97133.37;1781439;78;20703;-68
2021/04/30 07:11:54;;;;;;;;;;;;;;;14.87;72.34;97142.66;1744940;80;20750;-67
2021/04/30 07:14:23;;;;;;;;;;;;;;;14.87;72.07;97129.42;1766391;79;21919;-71
2021/04/30 07:16:52;;;;;;;;;;;;;;;14.87;71.86;97128.10;1756179;79;20476;-71
2021/04/30 07:19:21;;;;;;;;;;;;;;;14.88;72.03;97135.76;1749202;80;20594;-69
2021/04/30 07:21:49;;;;;;;;;;;;;;;14.90;72.13;97136.27;1737526;80;20576;-71
2021/04/30 07:24:16;;;;;;;;;;;;;;;14.90;72.22;97138.13;1747071;80;21408;-73
2021/04/30 07:26:44;;;;;;;;;;;;;;;14.90;71.93;97142.88;1741144;80;21772;-70
2021/04/30 07:29:12;;;;;;;;;;;;;;;14.91;71.76;97150.28;1745129;80;20477;-69
2021/04/30 07:31:40;;;;;;;;;;;;;;;14.93;71.64;97150.77;1748838;80;20478;-69
2021/04/30 07:34:10;;;;;;;;;;;;;;;14.95;71.72;97159.21;1737102;80;20446;-72
2021/04/30 07:36:38;;;;;;;;;;;;;;;14.95;71.50;97158.67;1742585;80;20588;-69
2021/04/30 07:39:06;;;;;;;;;;;;;;;14.97;71.48;97167.13;1756323;80;21880;-68
2021/04/30 07:41:33;;;;;;;;;;;;;;;15.00;71.77;97176.33;1758330;80;20553;-71
2021/04/30 07:44:02;;;;;;;;;;;;;;;15.01;71.49;97175.26;1759619;80;20417;-68
2021/04/30 07:46:30;;;;;;;;;;;;;;;15.04;71.77;97181.31;1759406;80;20430;-69
2021/04/30 07:48:58;;;;;;;;;;;;;;;15.05;71.70;97189.51;1775143;78;20511;-66
2021/04/30 07:51:26;;;;;;;;;;;;;;;15.08;71.13;97188.91;1752901;80;21879;-68
2021/04/30 07:53:54;;;;;;;;;;;;;;;15.09;71.07;97185.20;1748140;80;20482;-70
2021/04/30 07:56:22;;;;;;;;;;;;;;;15.11;70.64;97183.85;1751028;80;20496;-67
2021/04/30 07:58:50;;;;;;;;;;;;;;;15.13;70.85;97183.54;1761711;79;20685;-66
2021/04/30 08:01:18;;;;;;;;;;;;;;;15.13;70.65;97183.00;1782509;78;20776;-67
2021/04/30 08:03:46;;;;;;;;;;;;;;;15.13;70.78;97184.33;1790021;78;20949;-69
2021/04/30 08:06:14;;;;;;;;;;;;;;;15.13;70.87;97185.66;1783631;78;20480;-68
2021/04/30 08:08:42;;;;;;;;;;;;;;;15.12;71.17;97184.64;1787391;78;20219;-70
2021/04/30 08:11:10;;;;;;;;;;;;;;;15.12;70.75;97178.02;1799898;78;20630;-69
2021/04/30 08:13:38;;;;;;;;;;;;;;;15.14;70.68;97183.26;1779189;78;20991;-70
2021/04/30 08:16:08;;;;;;;;;;;;;;;15.18;70.75;97190.89;1781933;78;21413;-75
2021/04/30 08:18:36;;;;;;;;;;;;;;;15.22;70.58;97177.85;1779228;78;20593;-71
2021/04/30 08:21:04;;;;;;;;;;;;;;;15.29;70.62;97182.24;1786174;78;20421;-66
2021/04/30 08:23:33;;;;;;;;;;;;;;;15.35;70.38;97175.80;1789062;78;20699;-67
2021/04/30 08:26:01;;;;;;;;;;;;;;;15.42;70.29;97172.23;1759224;79;20598;-73
2021/04/30 08:28:29;;;;;;;;;;;;;;;15.50;69.89;97171.58;1781483;78;20738;-71
2021/04/30 08:30:58;;;;;;;;;;;;;;;15.61;69.61;97178.33;1793973;78;20472;-69
2021/04/30 08:33:26;;;;;;;;;;;;;;;15.75;69.55;97180.22;1784144;78;20613;-72
2021/04/30 08:35:54;;;;;;;;;;;;;;;15.88;69.21;97172.29;1790158;78;20411;-70
2021/04/30 08:38:22;;;;;;;;;;;;;;;16.04;68.37;97170.69;1778081;78;20471;-70
2021/04/30 08:40:51;;;;;;;;;;;;;;;16.19;68.34;97170.41;1777634;79;21679;-67
2021/04/30 08:43:19;;;;;;;;;;;;;;;16.35;68.19;97173.02;1796370;78;20472;-70
2021/04/30 08:45:47;;;;;;;;;;;;;;;16.50;66.95;97171.89;1781009;78;20573;-67
2021/04/30 08:48:14;;;;;;;;;;;;;;;16.62;66.51;97178.86;1782883;78;20614;-66
2021/04/30 08:50:42;;;;;;;;;;;;;;;16.74;66.07;97173.81;1784119;78;20791;-68
2021/04/30 08:53:10;;;;;;;;;;;;;;;16.83;65.62;97170.70;1787567;78;21928;-66
2021/04/30 08:55:38;;;;;;;;;;;;;;;16.96;65.67;97170.42;1801042;78;20480;-68
2021/04/30 08:58:09;;;;;;;;;;;;;;;17.05;65.26;97163.33;1784138;78;20464;-69
2021/04/30 09:00:35;;;;;;;;;;;;;;;17.14;65.22;97166.84;1744706;80;20583;-67
2021/04/30 09:03:04;;;;;;;;;;;;;;;17.25;65.01;97172.14;1742757;79;20619;-70
2021/04/30 09:05:32;;;;;;;;;;;;;;;17.33;64.61;97167.44;1768886;79;21420;-69
2021/04/30 09:08:00;;;;;;;;;;;;;;;17.41;63.89;97175.23;1798311;78;20406;-66
2021/04/30 09:10:30;;;;;;;;;;;;;;;17.47;63.77;97168.70;1808747;77;20310;-67
2021/04/30 09:13:10;;;;;;;;;;;;;;;17.54;63.01;97175.70;1812521;77;20674;-69
2021/04/30 09:15:41;;;;;;;;;;;;;;;17.59;62.70;97178.23;1809834;77;20772;-68
2021/04/30 09:18:18;;;;;;;;;;;;;;;17.65;61.88;97173.05;1806615;77;21855;-70
2021/04/30 09:20:47;;;;;;;;;;;;;;;17.71;61.67;97167.88;1809222;77;20597;-70
2021/04/30 09:23:37;;;;;;;;;;;;;;;17.77;61.74;97159.22;1799153;77;20342;-69
2021/04/30 09:26:23;;;;;;;;;;;;;;;17.90;62.59;97161.00;1802761;77;20557;-72
2021/04/30 09:29:10;;;;;;;;;;;;;;;18.10;61.79;97155.69;1804687;77;20722;-70
2021/04/30 09:31:42;;;;;;;;;;;;;;;18.26;61.12;97160.29;1794419;77;21869;-68
2021/04/30 09:34:28;;;;;;;;;;;;;;;18.41;60.27;97153.76;1816064;77;20520;-68
2021/04/30 09:37:09;;;;;;;;;;;;;;;18.48;59.88;97161.28;1759407;79;20482;-68
2021/04/30 09:39:57;;;;;;;;;;;;;;;18.54;59.30;97170.69;1809295;77;20744;-68
2021/04/30 09:42:28;;;;;;;;;;;;;;;18.57;58.79;97173.56;1774518;79;20823;-68
2021/04/30 09:45:05;;;;;;;;;;;;;;;18.56;57.98;97165.87;1751280;80;21923;-69
2021/04/30 09:47:41;;;;;;;;;;;;;;;18.53;58.34;97166.45;1752647;80;20539;-69
2021/04/30 09:50:16;;;;;;;;;;;;;;;18.54;58.90;97170.14;1772580;77;33316;-68
2021/04/30 09:52:53;;;;;;;;;;;;;;;18.62;58.60;97173.41;1755478;79;20526;-69
2021/04/30 09:55:20;;;;;;;;;;;;;;;18.67;57.66;97177.24;1805433;77;20455;-69
2021/04/30 09:57:50;;;;;;;;;;;;;;;18.66;57.35;97173.55;1803822;77;21944;-68
2021/04/30 10:00:18;;;;;;;;;;;;;;;18.63;57.57;97176.85;1812965;75;20551;-69
2021/04/30 10:02:47;;;;;;;;;;;;;;;18.62;57.35;97178.73;1819566;77;20408;-68
2021/04/30 10:05:25;;;;;;;;;;;;;;;18.61;57.41;97179.81;1809894;78;20492;-68
2021/04/30 10:07:51;;;;;;;;;;;;;;;18.57;57.00;97190.86;1806766;78;20654;-68
2021/04/30 10:10:22;;;;;;;;;;;;;;;18.55;57.36;97181.03;1811169;78;22037;-69
2021/04/30 10:12:55;;;;;;;;;;;;;;;18.56;57.46;97177.86;1816653;77;20679;-68
2021/04/30 10:15:24;;;;;;;;;;;;;;;18.59;57.94;97181.21;1815190;76;20413;-68
2021/04/30 10:17:59;;;;;;;;;;;;;;;18.67;57.23;97184.44;1809855;78;20584;-69
2021/04/30 10:20:27;;;;;;;;;;;;;;;18.76;57.64;97181.80;1810574;77;20721;-70
2021/04/30 10:22:57;;;;;;;;;;;;;;;18.82;56.98;97187.20;1825443;77;22053;-68
2021/04/30 10:25:26;;;;;;;;;;;;;;;18.87;56.92;97188.41;1819908;77;20790;-66
2021/04/30 10:27:54;;;;;;;;;;;;;;;18.92;57.06;97189.58;1813305;77;20587;-70
2021/04/30 10:30:44;;;;;;;;;;;;;;;18.97;56.95;97186.22;1821701;77;20551;-67
2021/04/30 10:33:40;;;;;;;;;;;;;;;19.03;57.35;97198.28;1814976;77;20770;-69
2021/04/30 10:36:17;;;;;;;;;;;;;;;19.07;57.07;97190.46;1822192;76;22867;-68
2021/04/30 10:38:47;;;;;;;;;;;;;;;19.00;56.68;97206.91;1817128;76;20469;-68
2021/04/30 10:41:34;;;;;;;;;;;;;;;18.85;57.12;97207.35;1824389;76;20506;-65
2021/04/30 10:44:17;;;;;;;;;;;;;;;18.69;57.71;97200.89;1820178;76;20580;-67
2021/04/30 10:46:46;;;;;;;;;;;;;;;18.53;57.56;97213.02;1810976;76;20575;-68
2021/04/30 10:49:22;;;;;;;;;;;;;;;18.34;58.07;97225.26;1827188;76;21871;-69
2021/04/30 10:52:10;;;;;;;;;;;;;;;18.20;58.44;97219.25;1828752;76;20472;-68
2021/04/30 10:54:38;;;;;;;;;;;;;;;18.06;58.48;97217.23;1808541;77;20212;-66
2021/04/30 10:57:08;;;;;;;;;;;;;;;17.88;59.44;97207.83;1793427;77;20550;-63
2021/04/30 10:59:40;;;;;;;;;;;;;;;17.75;59.83;97208.69;1789569;77;21052;-68
2021/04/30 11:02:32;;;;;;;;;;;;;;;17.65;60.00;97218.23;1815399;76;21670;-70
2021/04/30 11:05:10;;;;;;;;;;;;;;;17.60;60.79;97217.55;1828420;76;20248;-67
2021/04/30 11:07:47;;;;;;;;;;;;;;;17.54;60.62;97218.22;1816593;78;20490;-69
2021/04/30 11:10:30;;;;;;;;;;;;;;;17.48;60.78;97220.75;1816887;76;21175;-67
2021/04/30 11:13:16;;;;;;;;;;;;;;;17.43;61.20;97227.52;1826945;76;20475;-74
2021/04/30 11:15:47;;;;;;;;;;;;;;;17.42;60.62;97229.39;1822370;76;21853;-69
2021/04/30 11:18:20;;;;;;;;;;;;;;;17.41;60.91;97229.69;1819204;76;20276;-68
2021/04/30 11:21:01;;;;;;;;;;;;;;;17.42;60.81;97223.30;1821878;76;20383;-67
2021/04/30 11:23:31;;;;;;;;;;;;;;;17.48;60.90;97232.71;1800954;76;20759;-67
2021/04/30 11:26:08;;;;;;;;;;;;;;;17.58;60.72;97231.12;1825755;76;20601;-68
2021/04/30 11:28:45;;;;;;;;;;;;;;;17.68;60.34;97225.61;1828746;76;22105;-68
2021/04/30 11:31:18;;;;;;;;;;;;;;;17.82;60.30;97221.01;1825471;76;20606;-67
2021/04/30 11:34:19;;;;;;;;;;;;;;;18.00;60.09;97218.45;1820587;76;20478;-68
2021/04/30 11:36:54;;;;;;;;;;;;;;;18.14;59.61;97212.50;1765961;76;20491;-65
2021/04/30 11:39:24;;;;;;;;;;;;;;;18.32;59.61;97213.59;1824679;76;20588;-69
2021/04/30 11:42:01;;;;;;;;;;;;;;;18.51;59.45;97217.35;1827941;76;21860;-66
